Time;durP1;ratioP1;P1;durP2;ratioP2;P2;SDS_P1;SDS_P2;PMS_P1;PMS_P2;Temp;Humidity;BMP_temperature;BMP_pressure;BME280_temperature;BME280_humidity;BME280_pressure;Samples;Min_cycle;Max_cycle;Signal;HPM_P1;HPM_P2
2021/03/04 00:00:48;;;;;;;44.98;29.23;;;8.70;99.90;;;;;;1891474;74;21075;-84
2021/03/04 00:03:16;;;;;;;44.88;28.77;;;8.70;99.90;;;;;;1884452;74;21122;-84
2021/03/04 00:05:43;;;;;;;46.30;29.00;;;8.70;99.90;;;;;;1886087;74;21079;-82
2021/03/04 00:08:12;;;;;;;42.83;26.90;;;8.70;99.90;;;;;;1885849;75;21162;-83
2021/03/04 00:10:39;;;;;;;46.65;28.00;;;8.80;99.90;;;;;;1885068;74;21119;-84
2021/03/04 00:13:07;;;;;;;43.65;27.70;;;8.80;99.90;;;;;;1883362;74;21482;-84
2021/03/04 00:15:34;;;;;;;44.45;28.73;;;8.70;99.90;;;;;;1880506;74;21110;-85
2021/03/04 00:18:02;;;;;;;45.33;28.45;;;8.70;99.90;;;;;;1884921;74;21083;-85
2021/03/04 00:20:32;;;;;;;41.53;27.20;;;8.70;99.90;;;;;;1895075;74;21065;-86
2021/03/04 00:23:00;;;;;;;43.20;27.50;;;8.70;99.90;;;;;;1880735;74;21137;-86
2021/03/04 00:25:30;;;;;;;42.58;27.82;;;8.70;99.90;;;;;;1888097;74;21549;-84
2021/03/04 00:27:57;;;;;;;43.02;27.90;;;8.70;99.90;;;;;;1886729;74;21231;-85
2021/03/04 00:30:26;;;;;;;44.23;29.60;;;8.80;99.90;;;;;;1885421;74;21199;-84
2021/03/04 00:32:54;;;;;;;39.90;26.42;;;8.80;99.90;;;;;;1885169;74;21494;-86
2021/03/04 00:35:22;;;;;;;39.23;26.20;;;8.80;99.90;;;;;;1893417;75;21066;-85
2021/03/04 00:37:50;;;;;;;38.85;25.57;;;8.80;99.90;;;;;;1885251;74;21024;-85
2021/03/04 00:40:20;;;;;;;40.12;25.10;;;8.80;99.90;;;;;;1889862;74;21068;-85
2021/03/04 00:42:48;;;;;;;41.08;25.90;;;8.80;99.90;;;;;;1878349;74;21043;-85
2021/03/04 00:45:18;;;;;;;39.25;25.48;;;8.80;99.90;;;;;;1885444;74;21204;-85
2021/03/04 00:47:45;;;;;;;37.55;25.52;;;8.70;99.90;;;;;;1886950;74;21620;-85
2021/03/04 00:50:15;;;;;;;39.10;25.60;;;8.70;99.90;;;;;;1891273;74;21629;-85
2021/03/04 00:52:42;;;;;;;40.35;26.48;;;8.70;99.90;;;;;;1887296;74;21113;-84
2021/03/04 00:55:10;;;;;;;44.33;26.82;;;8.70;99.90;;;;;;1883812;75;21149;-84
2021/03/04 00:57:38;;;;;;;41.65;26.40;;;8.70;99.90;;;;;;1884862;74;21232;-84
2021/03/04 01:00:08;;;;;;;40.20;25.23;;;8.70;99.90;;;;;;1884482;74;21093;-84
2021/03/04 01:02:36;;;;;;;39.03;25.32;;;8.70;99.90;;;;;;1888626;74;21153;-85
2021/03/04 01:05:04;;;;;;;42.13;25.50;;;8.60;99.90;;;;;;1883911;74;21072;-84
2021/03/04 01:07:33;;;;;;;39.38;25.10;;;8.60;99.90;;;;;;1884373;75;21118;-85
2021/03/04 01:10:01;;;;;;;40.58;25.30;;;8.70;99.90;;;;;;1880643;75;21099;-84
2021/03/04 01:12:28;;;;;;;38.17;23.30;;;8.70;99.90;;;;;;1886428;75;21063;-83
2021/03/04 01:14:56;;;;;;;40.38;24.35;;;8.70;99.90;;;;;;1886291;75;21079;-84
2021/03/04 01:17:23;;;;;;;35.75;23.12;;;8.70;99.90;;;;;;1888608;74;21135;-83
2021/03/04 01:19:51;;;;;;;39.15;24.02;;;8.60;99.90;;;;;;1886627;74;21047;-83
2021/03/04 01:22:19;;;;;;;37.42;23.85;;;8.60;99.90;;;;;;1889532;74;21168;-82
2021/03/04 01:25:06;;;;;;;35.28;23.40;;;8.60;99.90;;;;;;1887662;74;22464;-83
2021/03/04 01:27:34;;;;;;;37.78;24.00;;;8.60;99.90;;;;;;1925823;73;21398;-82
2021/03/04 01:30:02;;;;;;;41.40;25.43;;;8.60;99.90;;;;;;1908311;74;21078;-82
2021/03/04 01:32:29;;;;;;;44.80;25.97;;;8.70;99.90;;;;;;1873697;76;21058;-82
2021/03/04 01:34:56;;;;;;;39.10;24.00;;;8.70;99.90;;;;;;1881951;76;21154;-82
2021/03/04 01:37:24;;;;;;;42.33;25.17;;;8.70;99.90;;;;;;1871251;76;21165;-82
2021/03/04 01:39:52;;;;;;;43.13;24.45;;;8.60;99.90;;;;;;1877725;76;21147;-81
2021/03/04 01:42:20;;;;;;;38.98;23.55;;;8.70;99.90;;;;;;1872641;76;21211;-80
2021/03/04 01:44:47;;;;;;;42.93;25.62;;;8.70;99.90;;;;;;1881862;76;21054;-83
2021/03/04 01:47:16;;;;;;;41.05;23.92;;;8.70;99.90;;;;;;1875672;75;21114;-82
2021/03/04 01:49:43;;;;;;;37.48;22.32;;;8.70;99.90;;;;;;1871728;75;21075;-80
2021/03/04 01:52:11;;;;;;;38.55;22.00;;;8.60;99.90;;;;;;1873842;76;21370;-85
2021/03/04 01:54:39;;;;;;;46.48;24.00;;;8.60;99.90;;;;;;1873628;76;21075;-84
2021/03/04 01:57:07;;;;;;;46.45;24.15;;;8.60;99.90;;;;;;1869023;76;21069;-86
2021/03/04 01:59:35;;;;;;;37.90;22.40;;;8.60;99.90;;;;;;1872592;75;21563;-86
2021/03/04 02:02:20;;;;;;;35.68;22.22;;;8.60;99.90;;;;;;1878803;76;21159;-86
2021/03/04 02:04:48;;;;;;;38.02;21.97;;;8.50;99.90;;;;;;1868417;76;21590;-85
2021/03/04 02:07:24;;;;;;;37.03;22.22;;;8.50;99.90;;;;;;1872729;75;21141;-87
2021/03/04 02:10:01;;;;;;;41.48;24.20;;;8.50;99.90;;;;;;1818617;76;21596;-86
2021/03/04 02:12:40;;;;;;;38.33;22.62;;;8.60;99.90;;;;;;1873167;76;21171;-83
2021/03/04 02:15:11;;;;;;;41.45;24.20;;;8.50;99.90;;;;;;1869840;76;21207;-84
2021/03/04 02:17:41;;;;;;;44.33;23.75;;;8.50;99.90;;;;;;1865984;76;21623;-82
2021/03/04 02:20:29;;;;;;;40.28;22.93;;;8.50;99.90;;;;;;1871636;76;21129;-83
2021/03/04 02:23:02;;;;;;;37.63;21.57;;;8.50;99.90;;;;;;1873457;76;21085;-82
2021/03/04 02:25:33;;;;;;;37.63;22.15;;;8.40;99.90;;;;;;1837199;77;21066;-85
2021/03/04 02:28:02;;;;;;;34.35;20.97;;;8.40;99.90;;;;;;1915253;73;21051;-83
2021/03/04 02:30:33;;;;;;;35.58;20.68;;;8.40;99.90;;;;;;1914888;74;21222;-84
2021/03/04 02:33:09;;;;;;;35.48;20.82;;;8.40;99.90;;;;;;1873582;76;21090;-82
2021/03/04 02:35:38;;;;;;;37.78;22.52;;;8.40;99.90;;;;;;1868420;76;21226;-85
2021/03/04 02:38:09;;;;;;;34.48;21.12;;;8.40;99.90;;;;;;1866408;76;21223;-84
2021/03/04 02:40:38;;;;;;;39.40;22.30;;;8.30;99.90;;;;;;1873494;76;21493;-84
2021/03/04 02:43:08;;;;;;;38.08;21.68;;;8.30;99.90;;;;;;1870557;76;21187;-84
2021/03/04 02:45:37;;;;;;;38.42;22.50;;;8.30;99.90;;;;;;1869517;76;21619;-86
2021/03/04 02:48:06;;;;;;;35.20;21.95;;;8.30;99.90;;;;;;1873041;76;21169;-84
2021/03/04 02:50:34;;;;;;;39.13;22.67;;;8.30;99.90;;;;;;1870047;76;21183;-87
2021/03/04 02:53:02;;;;;;;39.05;23.42;;;8.30;99.90;;;;;;1871406;76;21117;-85
2021/03/04 02:55:30;;;;;;;40.50;23.27;;;8.20;99.90;;;;;;1877456;76;21085;-84
2021/03/04 02:58:00;;;;;;;38.42;22.42;;;8.30;99.90;;;;;;1873263;76;21132;-83
2021/03/04 03:00:30;;;;;;;38.78;22.87;;;8.30;99.90;;;;;;1832497;76;21089;-83
2021/03/04 03:03:00;;;;;;;44.83;24.02;;;8.30;99.90;;;;;;1880265;76;21051;-82
2021/03/04 03:05:30;;;;;;;39.73;23.42;;;8.30;99.90;;;;;;1916923;74;21038;-84
2021/03/04 03:07:59;;;;;;;38.88;23.20;;;8.30;99.90;;;;;;1920204;74;21099;-85
2021/03/04 03:10:27;;;;;;;39.78;24.47;;;8.30;99.90;;;;;;1911498;74;21147;-82
2021/03/04 03:13:01;;;;;;;44.20;25.45;;;8.30;99.90;;;;;;1897457;75;21099;-82
2021/03/04 03:15:29;;;;;;;41.33;24.07;;;8.30;99.90;;;;;;1866017;76;21147;-82
2021/03/04 03:17:56;;;;;;;41.83;24.47;;;8.30;99.90;;;;;;1872672;76;21190;-82
2021/03/04 03:20:25;;;;;;;40.88;23.70;;;8.30;99.90;;;;;;1867844;76;21015;-82
2021/03/04 03:22:54;;;;;;;45.08;25.88;;;8.30;99.90;;;;;;1873753;76;21147;-83
2021/03/04 03:25:22;;;;;;;40.73;24.02;;;8.30;99.90;;;;;;1873619;75;21105;-83
2021/03/04 03:27:50;;;;;;;40.43;23.95;;;8.30;99.90;;;;;;1874286;76;21137;-86
2021/03/04 03:30:23;;;;;;;38.90;24.63;;;8.30;99.90;;;;;;1880851;75;21498;-83
2021/03/04 03:33:06;;;;;;;40.30;24.27;;;8.30;99.90;;;;;;1871599;76;21172;-84
2021/03/04 03:35:34;;;;;;;43.90;25.45;;;8.20;99.90;;;;;;1872480;76;21175;-83
2021/03/04 03:38:03;;;;;;;40.17;24.37;;;8.20;99.90;;;;;;1874448;76;21082;-84
2021/03/04 03:40:33;;;;;;;42.03;25.30;;;8.20;99.90;;;;;;1874536;76;21673;-84
2021/03/04 03:43:03;;;;;;;42.58;25.08;;;8.20;99.90;;;;;;1874951;76;21254;-82
2021/03/04 03:45:33;;;;;;;40.20;25.57;;;8.20;99.90;;;;;;1874220;76;21653;-82
2021/03/04 03:48:03;;;;;;;41.50;24.47;;;8.30;99.90;;;;;;1866686;76;22036;-83
2021/03/04 03:50:32;;;;;;;39.90;23.83;;;8.30;99.90;;;;;;1868734;76;21081;-82
2021/03/04 03:53:01;;;;;;;40.00;24.12;;;8.30;99.90;;;;;;1867098;76;21183;-84
2021/03/04 03:55:29;;;;;;;42.50;25.95;;;8.30;99.90;;;;;;1874609;76;21152;-85
2021/03/04 03:57:59;;;;;;;41.20;25.12;;;8.20;99.90;;;;;;1866712;76;21139;-82
2021/03/04 04:00:27;;;;;;;40.85;24.10;;;8.20;99.90;;;;;;1867632;75;21085;-83
2021/03/04 04:03:01;;;;;;;41.75;24.02;;;8.20;99.90;;;;;;1873424;75;21082;-84
2021/03/04 04:05:29;;;;;;;40.20;24.15;;;8.20;99.90;;;;;;1874020;76;21156;-84
2021/03/04 04:07:58;;;;;;;41.73;25.88;;;8.20;99.90;;;;;;1868996;76;21086;-84
2021/03/04 04:10:27;;;;;;;46.05;26.52;;;8.20;99.90;;;;;;1872230;76;21540;-83
2021/03/04 04:12:55;;;;;;;41.80;26.20;;;8.20;99.90;;;;;;1866567;76;21215;-82
2021/03/04 04:15:24;;;;;;;43.05;26.25;;;8.20;99.90;;;;;;1837290;76;21165;-83
2021/03/04 04:17:52;;;;;;;43.90;25.60;;;8.20;99.90;;;;;;1856684;76;21148;-84
2021/03/04 04:20:21;;;;;;;42.93;25.25;;;8.10;99.90;;;;;;1913491;74;21085;-83
2021/03/04 04:22:49;;;;;;;43.35;25.17;;;8.10;99.90;;;;;;1873534;76;21155;-83
2021/03/04 04:25:17;;;;;;;41.48;25.82;;;8.10;99.90;;;;;;1874168;76;21528;-82
2021/03/04 04:27:44;;;;;;;37.90;24.12;;;8.10;99.90;;;;;;1830048;75;21196;-79
2021/03/04 04:30:12;;;;;;;41.88;25.05;;;8.20;99.90;;;;;;1811568;77;21529;-82
2021/03/04 04:32:39;;;;;;;39.40;24.52;;;8.10;99.90;;;;;;1809801;77;21131;-79
2021/03/04 04:35:07;;;;;;;38.00;23.47;;;8.20;99.90;;;;;;1815151;77;21248;-80
2021/03/04 04:37:35;;;;;;;35.33;22.98;;;8.10;99.90;;;;;;1811577;77;21150;-78
2021/03/04 04:40:04;;;;;;;40.05;24.12;;;8.10;99.90;;;;;;1808870;77;21521;-81
2021/03/04 04:42:32;;;;;;;41.18;23.77;;;8.00;99.90;;;;;;1808627;79;21087;-80
2021/03/04 04:44:59;;;;;;;37.15;23.40;;;8.10;99.90;;;;;;1811260;77;21197;-79
2021/03/04 04:47:27;;;;;;;38.63;24.02;;;8.10;99.90;;;;;;1810310;77;21318;-81
2021/03/04 04:49:55;;;;;;;35.83;23.42;;;8.00;99.90;;;;;;1804800;77;21123;-79
2021/03/04 04:52:22;;;;;;;35.73;23.32;;;8.10;99.90;;;;;;1816379;77;21123;-80
2021/03/04 04:54:50;;;;;;;42.58;24.50;;;8.10;99.90;;;;;;1807319;77;21107;-79
2021/03/04 04:57:17;;;;;;;38.17;23.22;;;8.10;99.90;;;;;;1809249;79;21194;-80
2021/03/04 04:59:45;;;;;;;37.08;23.30;;;8.10;99.90;;;;;;1799487;77;21137;-80
2021/03/04 05:02:13;;;;;;;38.10;22.80;;;8.10;99.90;;;;;;1808184;77;21161;-81
2021/03/04 05:04:40;;;;;;;34.43;23.22;;;8.10;99.90;;;;;;1810905;77;21166;-81
2021/03/04 05:07:08;;;;;;;37.80;24.00;;;8.10;99.90;;;;;;1814601;77;21111;-80
2021/03/04 05:09:35;;;;;;;41.55;23.32;;;8.10;99.90;;;;;;1810907;77;21169;-80
2021/03/04 05:12:03;;;;;;;36.23;23.05;;;8.10;99.90;;;;;;1820126;77;21177;-80
2021/03/04 05:14:31;;;;;;;38.65;24.18;;;8.10;99.90;;;;;;1805958;77;21585;-80
2021/03/04 05:16:58;;;;;;;35.98;23.50;;;8.10;99.90;;;;;;1806992;77;21623;-80
2021/03/04 05:19:25;;;;;;;37.95;22.82;;;8.20;99.90;;;;;;1811339;77;21225;-80
2021/03/04 05:21:53;;;;;;;34.50;22.67;;;8.20;99.90;;;;;;1808782;77;21071;-81
2021/03/04 05:24:23;;;;;;;32.60;21.30;;;8.10;99.90;;;;;;1807075;77;21184;-80
2021/03/04 05:26:50;;;;;;;31.62;19.65;;;8.10;99.90;;;;;;1820646;77;21134;-80
2021/03/04 05:29:18;;;;;;;28.50;18.02;;;8.20;99.90;;;;;;1810274;77;21092;-79
2021/03/04 05:31:45;;;;;;;27.48;17.98;;;8.20;99.90;;;;;;1807240;77;21114;-78
2021/03/04 05:34:13;;;;;;;25.15;16.80;;;8.20;99.90;;;;;;1812163;77;21243;-80
2021/03/04 05:36:40;;;;;;;23.10;14.87;;;8.20;99.90;;;;;;1803258;79;21182;-79
2021/03/04 05:39:08;;;;;;;23.00;15.75;;;8.20;99.90;;;;;;1807645;77;21117;-79
2021/03/04 05:41:36;;;;;;;24.23;16.05;;;8.20;99.90;;;;;;1807886;77;21539;-79
2021/03/04 05:44:06;;;;;;;23.20;15.00;;;8.20;99.90;;;;;;1815340;77;21055;-81
2021/03/04 05:46:35;;;;;;;23.70;15.53;;;8.20;99.90;;;;;;1857983;76;21130;-80
2021/03/04 05:49:04;;;;;;;21.62;15.05;;;8.20;99.90;;;;;;1841356;76;21176;-80
2021/03/04 05:51:35;;;;;;;24.40;16.05;;;8.20;99.90;;;;;;1844120;77;21529;-80
2021/03/04 05:54:04;;;;;;;23.12;15.48;;;8.20;99.90;;;;;;1846980;76;21154;-79
2021/03/04 05:56:33;;;;;;;22.52;14.50;;;8.10;99.90;;;;;;1848689;76;21161;-80
2021/03/04 05:59:02;;;;;;;19.25;13.03;;;8.10;99.90;;;;;;1846036;76;21191;-81
2021/03/04 06:01:30;;;;;;;17.42;11.88;;;8.10;99.90;;;;;;1844811;76;21495;-78
2021/03/04 06:03:59;;;;;;;17.55;12.18;;;8.10;99.90;;;;;;1847615;76;21110;-80
2021/03/04 06:06:27;;;;;;;16.75;11.10;;;8.10;99.90;;;;;;1854598;76;21158;-78
2021/03/04 06:08:54;;;;;;;16.17;10.78;;;8.00;99.90;;;;;;1853197;76;21110;-79
2021/03/04 06:11:23;;;;;;;13.15;9.33;;;8.10;99.90;;;;;;1851750;76;21176;-78
2021/03/04 06:13:51;;;;;;;15.68;11.22;;;8.00;99.90;;;;;;1847710;77;21346;-81
2021/03/04 06:16:19;;;;;;;15.98;11.35;;;8.00;99.90;;;;;;1781750;79;21572;-80
2021/03/04 06:18:46;;;;;;;11.85;9.18;;;8.00;99.90;;;;;;1842081;76;21343;-79
2021/03/04 06:21:20;;;;;;;13.68;9.18;;;8.00;99.90;;;;;;1846010;76;21087;-81
2021/03/04 06:23:48;;;;;;;15.35;9.78;;;8.00;99.90;;;;;;1813117;78;21205;-81
2021/03/04 06:26:38;;;;;;;12.60;9.35;;;8.00;99.90;;;;;;1813553;77;21243;-81
2021/03/04 06:29:16;;;;;;;10.78;8.03;;;8.00;99.90;;;;;;1805347;79;21147;-81
2021/03/04 06:31:45;;;;;;;11.65;8.20;;;8.00;99.90;;;;;;1849850;76;21110;-80
2021/03/04 06:34:23;;;;;;;10.00;7.72;;;7.90;99.90;;;;;;1850553;76;21082;-84
2021/03/04 06:36:56;;;;;;;12.28;8.23;;;8.00;99.90;;;;;;1851223;76;21067;-83
2021/03/04 06:39:24;;;;;;;12.98;9.15;;;8.00;99.90;;;;;;1827829;76;21067;-77
2021/03/04 06:42:03;;;;;;;15.10;10.30;;;7.90;99.90;;;;;;1846856;76;21109;-77
2021/03/04 06:44:49;;;;;;;17.80;11.90;;;7.90;99.90;;;;;;1842432;76;21110;-77
2021/03/04 06:47:24;;;;;;;16.30;12.23;;;7.80;99.90;;;;;;1851114;76;21658;-78
2021/03/04 06:49:54;;;;;;;18.98;12.80;;;7.70;99.90;;;;;;1851554;76;21098;-79
2021/03/04 06:52:27;;;;;;;17.82;12.82;;;7.70;99.90;;;;;;1857827;76;21130;-78
2021/03/04 06:54:57;;;;;;;16.57;12.28;;;7.80;99.90;;;;;;1850462;76;21119;-80
2021/03/04 06:57:24;;;;;;;15.72;11.55;;;7.80;99.90;;;;;;1853798;76;21287;-77
2021/03/04 06:59:52;;;;;;;14.35;10.63;;;7.80;99.90;;;;;;1839780;76;21103;-79
2021/03/04 07:02:29;;;;;;;14.73;10.82;;;7.90;99.90;;;;;;1849335;76;21726;-80
2021/03/04 07:05:01;;;;;;;14.28;9.48;;;7.90;99.90;;;;;;1844317;76;21105;-79
2021/03/04 07:07:30;;;;;;;15.35;9.18;;;8.00;99.90;;;;;;1841091;76;21277;-79
2021/03/04 07:09:59;;;;;;;12.93;8.95;;;8.00;99.90;;;;;;1840632;76;21244;-78
2021/03/04 07:12:27;;;;;;;16.00;9.88;;;8.10;99.90;;;;;;1854196;76;21076;-79
2021/03/04 07:14:55;;;;;;;10.45;8.05;;;8.20;99.90;;;;;;1838119;76;21201;-79
2021/03/04 07:17:24;;;;;;;13.28;8.78;;;8.20;99.90;;;;;;1841948;76;21537;-76
2021/03/04 07:19:57;;;;;;;12.37;8.28;;;8.20;99.90;;;;;;1844268;76;21383;-80
2021/03/04 07:22:28;;;;;;;14.47;8.53;;;8.20;99.90;;;;;;1850531;76;21585;-79
2021/03/04 07:24:55;;;;;;;13.40;8.65;;;8.20;99.90;;;;;;1854314;76;21628;-78
2021/03/04 07:27:23;;;;;;;13.88;8.65;;;8.20;99.90;;;;;;1854205;76;21139;-77
2021/03/04 07:29:52;;;;;;;14.28;9.50;;;8.20;99.90;;;;;;1849792;76;21633;-77
2021/03/04 07:32:23;;;;;;;15.98;9.88;;;8.20;99.90;;;;;;1848082;76;21180;-76
2021/03/04 07:34:50;;;;;;;14.80;9.40;;;8.10;99.90;;;;;;1850284;76;21168;-77
2021/03/04 07:37:19;;;;;;;13.22;8.45;;;8.10;99.90;;;;;;1843973;76;21677;-77
2021/03/04 07:39:49;;;;;;;16.30;9.23;;;8.20;99.90;;;;;;1851888;76;21114;-76
2021/03/04 07:42:22;;;;;;;11.30;8.70;;;8.30;99.90;;;;;;1852414;76;21250;-76
2021/03/04 07:44:50;;;;;;;12.05;8.80;;;8.30;99.90;;;;;;1845212;76;21106;-80
2021/03/04 07:47:28;;;;;;;10.90;7.50;;;8.30;99.90;;;;;;1850088;76;21130;-77
2021/03/04 07:49:56;;;;;;;12.95;6.90;;;8.40;99.90;;;;;;1849298;76;21152;-77
2021/03/04 07:52:25;;;;;;;11.78;7.47;;;8.40;99.90;;;;;;1845880;76;22184;-77
2021/03/04 07:54:55;;;;;;;13.38;7.35;;;8.30;99.90;;;;;;1851366;76;21766;-79
2021/03/04 07:57:26;;;;;;;10.70;6.10;;;8.30;99.90;;;;;;1857487;76;21698;-79
2021/03/04 08:00:05;;;;;;;10.35;6.42;;;8.40;99.90;;;;;;1846528;75;21117;-77
2021/03/04 08:02:42;;;;;;;10.82;6.12;;;8.40;99.90;;;;;;1847236;76;21311;-77
2021/03/04 08:05:16;;;;;;;7.37;4.67;;;8.40;99.90;;;;;;1845634;76;21117;-77
2021/03/04 08:07:48;;;;;;;10.13;5.75;;;8.40;99.90;;;;;;1845935;76;21652;-78
2021/03/04 08:10:21;;;;;;;11.90;5.50;;;8.40;99.90;;;;;;1846206;75;21113;-76
2021/03/04 08:13:04;;;;;;;8.68;5.03;;;8.40;99.90;;;;;;1846694;76;21146;-78
2021/03/04 08:15:34;;;;;;;7.58;5.03;;;8.40;99.90;;;;;;1853186;76;21102;-75
2021/03/04 08:18:06;;;;;;;8.18;5.40;;;8.50;99.90;;;;;;1849897;76;21333;-81
2021/03/04 08:20:34;;;;;;;9.28;5.83;;;8.50;99.90;;;;;;1854396;76;21074;-75
2021/03/04 08:23:01;;;;;;;11.12;4.87;;;8.60;99.90;;;;;;1845137;76;21094;-81
2021/03/04 08:25:31;;;;;;;8.98;5.03;;;8.60;99.90;;;;;;1858334;76;21194;-76
2021/03/04 08:28:01;;;;;;;9.50;5.62;;;8.60;99.90;;;;;;1853482;76;21482;-75
2021/03/04 08:30:30;;;;;;;8.43;5.20;;;8.60;99.90;;;;;;1850033;76;21171;-75
2021/03/04 08:33:01;;;;;;;11.10;5.62;;;8.60;99.90;;;;;;1850802;76;21157;-75
2021/03/04 08:35:29;;;;;;;9.33;5.72;;;8.70;99.90;;;;;;1849550;76;21207;-76
2021/03/04 08:37:59;;;;;;;8.88;5.60;;;8.70;99.90;;;;;;1844400;76;22367;-76
2021/03/04 08:40:26;;;;;;;11.75;5.97;;;8.70;99.90;;;;;;1849057;76;21169;-77
2021/03/04 08:42:54;;;;;;;12.68;6.03;;;8.70;99.90;;;;;;1849342;76;21227;-76
2021/03/04 08:45:29;;;;;;;12.73;7.20;;;8.70;99.90;;;;;;1850185;76;21684;-77
2021/03/04 08:47:57;;;;;;;11.25;7.10;;;8.70;99.90;;;;;;1845738;76;21133;-77
2021/03/04 08:50:45;;;;;;;12.28;7.40;;;8.70;99.90;;;;;;1848544;76;22662;-77
2021/03/04 08:53:15;;;;;;;12.20;7.12;;;8.70;99.90;;;;;;1845631;76;22137;-76
2021/03/04 08:55:50;;;;;;;10.70;6.95;;;8.60;99.90;;;;;;1777227;79;21184;-76
2021/03/04 08:58:22;;;;;;;15.45;6.83;;;8.60;99.90;;;;;;1845541;75;21232;-76
2021/03/04 09:00:55;;;;;;;9.18;6.20;;;8.60;99.90;;;;;;1851169;76;21200;-76
2021/03/04 09:03:24;;;;;;;12.07;6.17;;;8.70;99.90;;;;;;1850232;76;21139;-80
2021/03/04 09:05:54;;;;;;;10.48;6.58;;;8.70;99.90;;;;;;1851795;76;21143;-80
2021/03/04 09:08:21;;;;;;;10.70;5.87;;;8.70;99.90;;;;;;1846958;76;21138;-77
2021/03/04 09:10:51;;;;;;;10.38;6.17;;;8.70;99.90;;;;;;1848203;76;21109;-79
2021/03/04 09:13:21;;;;;;;8.63;5.37;;;8.70;99.90;;;;;;1847333;76;21581;-81
2021/03/04 09:15:52;;;;;;;8.58;5.58;;;8.60;99.90;;;;;;1848371;76;21218;-79
2021/03/04 09:18:20;;;;;;;11.38;5.70;;;8.70;99.90;;;;;;1852437;76;21219;-80
2021/03/04 09:20:49;;;;;;;11.00;6.33;;;8.70;99.90;;;;;;1848323;76;21124;-78
2021/03/04 09:23:17;;;;;;;12.15;5.72;;;8.80;99.90;;;;;;1848617;76;21075;-80
2021/03/04 09:25:45;;;;;;;12.70;6.60;;;8.70;99.90;;;;;;1853802;76;21067;-78
2021/03/04 09:28:15;;;;;;;15.15;6.10;;;8.70;99.90;;;;;;1855249;76;21189;-79
2021/03/04 09:30:44;;;;;;;9.90;6.17;;;8.70;99.90;;;;;;1846827;76;21082;-78
2021/03/04 09:33:19;;;;;;;14.65;6.67;;;8.80;99.90;;;;;;1846218;76;21568;-79
2021/03/04 09:35:58;;;;;;;15.05;6.00;;;8.90;99.90;;;;;;1848160;76;21099;-80
2021/03/04 09:38:27;;;;;;;10.13;5.80;;;8.90;99.90;;;;;;1848442;76;21232;-79
2021/03/04 09:40:56;;;;;;;18.48;6.40;;;8.90;99.90;;;;;;1846253;76;21153;-80
2021/03/04 09:43:23;;;;;;;11.73;5.95;;;8.90;99.90;;;;;;1846271;76;21524;-80
2021/03/04 09:45:53;;;;;;;10.53;5.40;;;9.00;99.90;;;;;;1850731;76;21212;-79
2021/03/04 09:48:37;;;;;;;10.50;5.62;;;9.00;99.90;;;;;;1855709;76;21678;-80
2021/03/04 09:51:04;;;;;;;14.95;6.15;;;9.10;99.90;;;;;;1849264;76;21126;-81
2021/03/04 09:53:32;;;;;;;19.82;6.78;;;9.10;99.90;;;;;;1849543;76;21028;-81
2021/03/04 09:56:02;;;;;;;16.07;6.17;;;9.00;99.90;;;;;;1847767;76;21102;-80
2021/03/04 09:58:30;;;;;;;12.23;5.67;;;9.00;99.90;;;;;;1842043;76;21651;-80
2021/03/04 10:01:01;;;;;;;10.63;5.87;;;9.00;99.90;;;;;;1847974;76;21133;-81
2021/03/04 10:03:34;;;;;;;12.78;5.95;;;9.00;99.90;;;;;;1845899;76;21099;-80
2021/03/04 10:06:03;;;;;;;12.68;6.03;;;8.90;99.90;;;;;;1851485;76;21611;-79
2021/03/04 10:08:41;;;;;;;10.23;5.87;;;9.00;99.90;;;;;;1844320;76;21141;-79
2021/03/04 10:11:11;;;;;;;13.22;5.53;;;9.10;99.90;;;;;;1851636;76;21121;-79
2021/03/04 10:13:38;;;;;;;11.18;5.92;;;9.20;99.90;;;;;;1847379;76;21137;-79
2021/03/04 10:16:14;;;;;;;11.75;5.70;;;9.20;99.90;;;;;;1848968;76;21102;-78
2021/03/04 10:18:46;;;;;;;12.35;6.17;;;9.30;99.90;;;;;;1848000;76;21169;-79
2021/03/04 10:21:14;;;;;;;;;;;9.30;99.90;;;;;;1849836;76;21688;-79
2021/03/04 10:23:41;;;;;;;9.93;5.65;;;9.40;99.90;;;;;;1835543;76;20197;-79
2021/03/04 10:26:09;;;;;;;10.53;5.67;;;9.50;99.90;;;;;;1848982;76;21189;-78
2021/03/04 10:28:36;;;;;;;10.60;6.08;;;9.60;99.90;;;;;;1890827;73;21114;-75
2021/03/04 10:31:04;;;;;;;12.75;6.75;;;9.70;99.90;;;;;;1926152;73;21575;-75
2021/03/04 10:33:31;;;;;;;14.55;6.05;;;9.70;99.90;;;;;;1930252;73;21111;-77
2021/03/04 10:35:59;;;;;;;11.95;5.90;;;9.80;99.90;;;;;;1922280;73;21162;-76
2021/03/04 10:38:26;;;;;;;13.83;5.92;;;9.90;99.90;;;;;;1951209;72;21120;-78
2021/03/04 10:40:54;;;;;;;10.30;5.72;;;9.90;99.90;;;;;;1952131;72;21018;-77
2021/03/04 10:43:21;;;;;;;13.85;5.87;;;9.90;99.90;;;;;;1958333;72;21174;-77
2021/03/04 10:45:49;;;;;;;13.65;6.00;;;10.00;99.90;;;;;;1964352;72;21093;-76
2021/03/04 10:48:17;;;;;;;13.00;6.25;;;10.00;99.90;;;;;;1956971;72;21151;-81
2021/03/04 10:50:44;;;;;;;18.55;5.78;;;10.10;99.90;;;;;;1956899;72;21096;-79
2021/03/04 10:53:12;;;;;;;13.38;5.72;;;10.00;99.90;;;;;;1963222;72;21068;-78
2021/03/04 10:55:40;;;;;;;15.83;7.00;;;10.10;99.90;;;;;;1958945;71;21067;-78
2021/03/04 10:58:08;;;;;;;14.38;6.47;;;10.10;99.90;;;;;;1963526;72;21196;-78
2021/03/04 11:00:36;;;;;;;14.20;6.55;;;10.00;99.90;;;;;;1953292;72;21117;-77
2021/03/04 11:03:05;;;;;;;14.50;6.55;;;10.00;99.90;;;;;;1953223;72;21029;-81
2021/03/04 11:05:32;;;;;;;13.65;6.12;;;9.90;99.90;;;;;;1956769;71;21551;-86
2021/03/04 11:08:00;;;;;;;15.05;7.15;;;9.80;99.90;;;;;;1960670;71;22631;-82
2021/03/04 11:10:27;;;;;;;16.93;6.90;;;9.80;99.90;;;;;;1964319;72;21069;-81
2021/03/04 11:12:55;;;;;;;18.57;7.05;;;9.80;99.90;;;;;;1964471;71;21034;-84
2021/03/04 11:15:23;;;;;;;15.90;7.70;;;9.80;99.90;;;;;;1959086;72;21096;-85
2021/03/04 11:17:50;;;;;;;12.82;6.97;;;9.70;99.90;;;;;;1960179;71;21042;-83
2021/03/04 11:20:18;;;;;;;17.23;7.45;;;9.70;99.90;;;;;;1960187;72;21065;-84
2021/03/04 11:22:45;;;;;;;16.20;6.55;;;9.80;99.90;;;;;;1959063;71;21077;-82
2021/03/04 11:25:14;;;;;;;13.78;6.22;;;9.80;99.90;;;;;;1958293;71;21041;-79
2021/03/04 11:27:42;;;;;;;17.07;6.62;;;9.90;99.90;;;;;;1962965;71;21157;-78
2021/03/04 11:30:10;;;;;;;14.75;6.55;;;9.90;99.90;;;;;;1962847;72;20994;-78
2021/03/04 11:32:37;;;;;;;15.70;5.97;;;10.00;99.90;;;;;;1968656;71;21603;-79
2021/03/04 11:35:05;;;;;;;13.58;5.95;;;9.90;99.90;;;;;;1967345;71;21037;-79
2021/03/04 11:37:33;;;;;;;16.57;6.28;;;9.90;99.90;;;;;;1961851;71;22221;-78
2021/03/04 11:40:00;;;;;;;10.45;4.78;;;9.90;99.90;;;;;;1965584;72;21637;-78
2021/03/04 11:42:28;;;;;;;13.85;5.37;;;9.90;99.90;;;;;;1971391;71;21193;-79
2021/03/04 11:44:55;;;;;;;20.88;6.78;;;10.00;99.90;;;;;;1968474;71;21077;-81
2021/03/04 11:47:23;;;;;;;14.58;6.62;;;10.00;99.90;;;;;;1965273;72;21109;-80
2021/03/04 11:49:52;;;;;;;14.45;6.33;;;10.00;99.90;;;;;;1963208;71;21108;-80
2021/03/04 11:52:20;;;;;;;11.65;6.30;;;10.00;99.90;;;;;;1968141;72;21206;-78
2021/03/04 11:54:48;;;;;;;18.82;6.40;;;10.10;99.90;;;;;;1964562;72;21071;-80
2021/03/04 11:57:16;;;;;;;16.05;6.60;;;10.10;99.90;;;;;;1965141;71;21042;-79
2021/03/04 11:59:43;;;;;;;18.25;6.40;;;10.20;99.90;;;;;;1957790;71;21050;-79
2021/03/04 12:02:10;;;;;;;11.25;5.08;;;10.20;99.90;;;;;;1955087;72;21081;-80
2021/03/04 12:04:38;;;;;;;14.78;5.30;;;10.20;99.90;;;;;;1963893;72;21143;-82
2021/03/04 12:07:05;;;;;;;14.28;4.97;;;10.20;99.90;;;;;;1960679;72;21042;-82
2021/03/04 12:09:33;;;;;;;12.68;5.20;;;10.30;99.90;;;;;;1975509;72;21032;-81
2021/03/04 12:12:01;;;;;;;12.25;4.87;;;10.30;99.90;;;;;;1956249;72;21077;-82
2021/03/04 12:14:28;;;;;;;9.73;4.85;;;10.30;99.90;;;;;;1988918;72;21091;-83
2021/03/04 12:16:56;;;;;;;11.12;4.72;;;10.30;99.90;;;;;;1973083;71;21097;-80
2021/03/04 12:19:24;;;;;;;13.18;5.50;;;10.30;99.90;;;;;;1956555;72;21136;-80
2021/03/04 12:21:51;;;;;;;16.10;5.05;;;10.30;99.90;;;;;;1963140;72;21209;-83
2021/03/04 12:24:19;;;;;;;13.43;4.50;;;10.30;99.90;;;;;;1965699;71;21108;-84
2021/03/04 12:26:49;;;;;;;14.10;4.72;;;10.30;99.90;;;;;;1974925;71;21111;-83
2021/03/04 12:29:17;;;;;;;17.12;5.00;;;10.30;99.90;;;;;;1964497;72;21129;-83
2021/03/04 12:31:45;;;;;;;14.75;4.45;;;10.30;99.90;;;;;;1965043;72;22060;-84
2021/03/04 12:34:13;;;;;;;11.15;4.67;;;10.20;99.90;;;;;;1962059;71;21737;-85
2021/03/04 12:36:41;;;;;;;13.35;4.20;;;10.20;99.90;;;;;;1978441;71;21065;-84
2021/03/04 12:39:09;;;;;;;12.60;4.22;;;10.20;99.90;;;;;;1964067;71;21218;-84
2021/03/04 12:41:37;;;;;;;11.80;4.17;;;10.30;99.90;;;;;;1927788;73;21133;-85
2021/03/04 12:44:04;;;;;;;15.72;6.65;;;10.40;99.90;;;;;;1965052;71;21531;-84
2021/03/04 12:46:32;;;;;;;14.00;5.10;;;10.30;99.90;;;;;;1968076;71;20991;-84
2021/03/04 12:48:59;;;;;;;13.53;4.33;;;10.40;99.90;;;;;;1968814;71;21077;-83
2021/03/04 12:51:28;;;;;;;17.52;4.00;;;10.40;99.90;;;;;;1969870;71;21080;-84